createdAt,value
2019-01-26T00:00:48.559Z,0.70
2019-01-26T00:03:17.039Z,0.70
2019-01-26T00:05:45.720Z,0.70
2019-01-26T00:08:14.122Z,0.70
2019-01-26T00:10:42.536Z,0.70
2019-01-26T00:13:10.944Z,0.80
2019-01-26T00:15:39.418Z,0.70
2019-01-26T00:18:07.848Z,0.70
2019-01-26T00:20:36.614Z,0.70
2019-01-26T00:23:05.607Z,0.70
2019-01-26T00:25:34.015Z,0.70
2019-01-26T00:28:02.419Z,0.70
2019-01-26T00:30:30.927Z,0.70
2019-01-26T00:32:59.330Z,0.80
2019-01-26T00:35:27.978Z,0.80
2019-01-26T00:37:56.679Z,0.80
2019-01-26T00:40:25.340Z,0.80
2019-01-26T00:42:53.739Z,0.80
2019-01-26T00:45:22.251Z,0.80
2019-01-26T00:47:50.906Z,0.80
2019-01-26T00:50:19.431Z,0.80
2019-01-26T00:52:47.835Z,0.80
2019-01-26T00:55:16.380Z,0.80
2019-01-26T00:57:44.795Z,0.80
2019-01-26T01:00:16.424Z,0.80
2019-01-26T01:02:44.832Z,0.80
2019-01-26T01:05:13.714Z,0.80
2019-01-26T01:07:42.259Z,0.80
2019-01-26T01:10:13.838Z,0.80
2019-01-26T01:12:42.338Z,0.80
2019-01-26T01:15:16.865Z,0.80
2019-01-26T01:17:45.279Z,0.80
2019-01-26T01:20:14.441Z,0.90
2019-01-26T01:22:42.856Z,0.90
2019-01-26T01:25:13.247Z,0.90
2019-01-26T01:27:42.105Z,0.90
2019-01-26T01:30:19.748Z,0.90
2019-01-26T01:32:48.214Z,0.90
2019-01-26T01:35:17.244Z,0.90
2019-01-26T01:37:45.667Z,0.90
2019-01-26T01:40:16.008Z,0.90
2019-01-26T01:42:44.480Z,0.90
2019-01-26T01:45:15.897Z,0.90
2019-01-26T01:47:44.344Z,0.90
2019-01-26T01:50:13.232Z,0.90
2019-01-26T01:52:41.689Z,0.90
2019-01-26T01:55:10.768Z,0.90
2019-01-26T01:57:39.186Z,0.90
2019-01-26T02:00:10.661Z,1.00
2019-01-26T02:02:39.077Z,1.00
2019-01-26T02:05:07.716Z,1.00
2019-01-26T02:07:36.141Z,1.00
2019-01-26T02:10:07.581Z,1.00
2019-01-26T02:12:35.996Z,0.90
2019-01-26T02:15:06.267Z,1.00
2019-01-26T02:17:34.684Z,0.90
2019-01-26T02:20:04.727Z,0.90
2019-01-26T02:22:33.151Z,0.90
2019-01-26T02:25:01.828Z,1.00
2019-01-26T02:27:30.234Z,1.00
2019-01-26T02:29:58.643Z,0.90
2019-01-26T02:32:27.065Z,1.00
2019-01-26T02:34:55.531Z,1.00
2019-01-26T02:37:23.948Z,1.10
2019-01-26T02:39:52.357Z,1.10
2019-01-26T02:42:20.801Z,1.00
2019-01-26T02:44:49.214Z,1.00
2019-01-26T02:47:17.639Z,1.10
2019-01-26T02:50:01.107Z,1.10
2019-01-26T02:52:29.869Z,1.10
2019-01-26T02:54:58.334Z,1.10
2019-01-26T02:57:26.984Z,1.10
2019-01-26T02:59:55.397Z,1.20
2019-01-26T03:02:23.814Z,1.20
2019-01-26T03:04:52.245Z,1.20
2019-01-26T03:07:20.669Z,1.20
2019-01-26T03:09:49.343Z,1.10
2019-01-26T03:12:17.834Z,1.10
2019-01-26T03:14:46.301Z,1.10
2019-01-26T03:17:14.772Z,1.10
2019-01-26T03:19:43.190Z,1.10
2019-01-26T03:22:11.848Z,1.10
2019-01-26T03:24:40.246Z,1.10
2019-01-26T03:27:08.655Z,1.10
2019-01-26T03:29:37.066Z,1.10
2019-01-26T03:32:05.500Z,1.10
2019-01-26T03:34:33.907Z,1.20
2019-01-26T03:37:02.335Z,1.20
2019-01-26T03:39:30.807Z,1.20
2019-01-26T03:41:59.217Z,1.30
2019-01-26T03:44:27.624Z,1.30
2019-01-26T03:46:56.075Z,1.40
2019-01-26T03:49:24.525Z,1.50
2019-01-26T03:51:52.940Z,1.70
2019-01-26T03:54:21.354Z,1.70
2019-01-26T03:56:49.880Z,1.80
2019-01-26T03:59:18.295Z,1.80
2019-01-26T04:01:46.886Z,1.80
2019-01-26T04:04:15.536Z,1.90
2019-01-26T04:06:43.990Z,2.00
2019-01-26T04:09:12.656Z,2.00
2019-01-26T04:11:41.065Z,2.00
2019-01-26T04:14:09.465Z,2.10
2019-01-26T04:16:38.163Z,2.20
2019-01-26T04:19:06.561Z,2.20
2019-01-26T04:21:35.082Z,2.20
2019-01-26T04:24:03.640Z,2.10
2019-01-26T04:26:32.051Z,2.10
2019-01-26T04:29:00.473Z,2.00
2019-01-26T04:31:28.872Z,2.00
2019-01-26T04:33:57.291Z,1.90
2019-01-26T04:36:26.037Z,2.00
2019-01-26T04:38:54.483Z,2.00
2019-01-26T04:41:22.918Z,2.10
2019-01-26T04:43:51.381Z,2.10
2019-01-26T04:46:19.793Z,2.10
2019-01-26T04:48:48.253Z,2.00
2019-01-26T04:51:16.674Z,2.20
2019-01-26T04:53:45.070Z,2.30
2019-01-26T04:56:13.500Z,2.40
2019-01-26T04:58:41.915Z,2.30
2019-01-26T05:01:10.335Z,2.40
2019-01-26T05:03:38.979Z,2.50
2019-01-26T05:06:07.717Z,2.50
2019-01-26T05:08:36.389Z,2.50
2019-01-26T05:11:05.038Z,2.60
2019-01-26T05:13:33.446Z,2.60
2019-01-26T05:16:01.858Z,2.70
2019-01-26T05:18:30.263Z,2.70
2019-01-26T05:20:58.675Z,2.80
2019-01-26T05:23:27.079Z,2.80
2019-01-26T05:25:55.478Z,2.80
2019-01-26T05:28:23.891Z,2.80
2019-01-26T05:30:52.295Z,2.80
2019-01-26T05:33:20.712Z,2.80
2019-01-26T05:35:49.123Z,3.00
2019-01-26T05:38:17.546Z,3.00
2019-01-26T05:40:45.986Z,3.20
2019-01-26T05:43:14.744Z,3.20
2019-01-26T05:45:43.175Z,3.30
2019-01-26T05:48:11.647Z,3.30
2019-01-26T05:50:40.051Z,3.30
2019-01-26T05:53:08.697Z,3.30
2019-01-26T05:55:37.104Z,3.40
2019-01-26T05:58:05.515Z,3.50
2019-01-26T06:00:33.943Z,3.50
2019-01-26T06:03:02.382Z,3.60
2019-01-26T06:05:31.082Z,3.50
2019-01-26T06:07:59.801Z,3.50
2019-01-26T06:10:28.237Z,3.50
2019-01-26T06:12:56.719Z,3.50
2019-01-26T06:15:25.201Z,3.50
2019-01-26T06:17:55.166Z,3.50
2019-01-26T06:20:23.908Z,3.50
2019-01-26T06:22:52.310Z,3.50
2019-01-26T06:25:21.187Z,3.40
2019-01-26T06:27:49.642Z,3.40
2019-01-26T06:30:23.101Z,3.40
2019-01-26T06:32:51.679Z,3.40
2019-01-26T06:35:20.143Z,3.40
2019-01-26T06:37:48.552Z,3.50
2019-01-26T06:40:18.894Z,3.50
2019-01-26T06:42:47.300Z,3.50
2019-01-26T06:45:17.871Z,3.40
2019-01-26T06:47:46.287Z,3.40
2019-01-26T06:50:24.689Z,3.30
2019-01-26T06:52:53.148Z,3.40
2019-01-26T06:55:21.810Z,3.30
2019-01-26T06:57:50.232Z,3.40
2019-01-26T07:00:25.036Z,3.50
2019-01-26T07:02:53.551Z,3.40
2019-01-26T07:05:23.903Z,3.40
2019-01-26T07:07:52.304Z,3.40
2019-01-26T07:10:20.709Z,3.40
2019-01-26T07:12:49.137Z,3.30
2019-01-26T07:15:18.427Z,3.40
2019-01-26T07:17:46.871Z,3.30
2019-01-26T07:20:17.643Z,3.40
2019-01-26T07:22:46.309Z,3.30
2019-01-26T07:25:15.430Z,3.30
2019-01-26T07:27:43.840Z,3.30
2019-01-26T07:30:15.804Z,3.30
2019-01-26T07:32:44.466Z,3.40
2019-01-26T07:35:12.941Z,3.40
2019-01-26T07:37:41.387Z,3.30
2019-01-26T07:40:12.880Z,3.30
2019-01-26T07:42:41.299Z,3.40
2019-01-26T07:45:11.438Z,3.40
2019-01-26T07:47:39.865Z,3.40
2019-01-26T07:50:11.462Z,3.40
2019-01-26T07:52:39.874Z,3.40
2019-01-26T07:55:10.331Z,3.40
2019-01-26T07:57:38.878Z,3.30
2019-01-26T08:00:10.647Z,3.00
2019-01-26T08:02:39.284Z,3.00
2019-01-26T08:05:09.330Z,2.90
2019-01-26T08:07:37.743Z,2.80
2019-01-26T08:10:09.233Z,2.70
2019-01-26T08:12:37.648Z,2.70
2019-01-26T08:15:09.701Z,2.60
2019-01-26T08:17:38.121Z,2.60
2019-01-26T08:20:12.268Z,2.60
2019-01-26T08:22:40.670Z,2.60
2019-01-26T08:25:09.158Z,2.60
2019-01-26T08:27:37.571Z,2.60
2019-01-26T08:30:09.083Z,2.50
2019-01-26T08:32:37.736Z,2.50
2019-01-26T08:35:07.591Z,2.60
2019-01-26T08:37:36.044Z,2.60
2019-01-26T08:40:07.671Z,2.60
2019-01-26T08:42:36.350Z,2.60
2019-01-26T08:45:08.019Z,2.60
2019-01-26T08:47:36.475Z,2.60
2019-01-26T08:50:07.965Z,2.60
2019-01-26T08:52:36.365Z,2.60
2019-01-26T08:55:07.716Z,2.60
2019-01-26T08:57:36.161Z,2.70
2019-01-26T09:00:10.726Z,2.70
2019-01-26T09:02:40.772Z,2.70
2019-01-26T09:05:10.311Z,2.80
2019-01-26T09:07:38.718Z,2.80
2019-01-26T09:10:07.984Z,2.90
2019-01-26T09:12:36.643Z,2.80
2019-01-26T09:15:08.471Z,2.90
2019-01-26T09:17:36.896Z,2.90
2019-01-26T09:20:11.789Z,2.90
2019-01-26T09:22:40.244Z,2.90
2019-01-26T09:25:10.551Z,2.90
2019-01-26T09:27:39.556Z,2.90
2019-01-26T09:30:16.408Z,2.90
2019-01-26T09:32:44.824Z,2.90
2019-01-26T09:35:13.388Z,3.00
2019-01-26T09:37:41.815Z,3.00
2019-01-26T09:40:21.165Z,3.10
2019-01-26T09:42:49.907Z,3.10
2019-01-26T09:45:21.580Z,3.20
2019-01-26T09:47:50.273Z,3.20
2019-01-26T09:50:20.223Z,3.20
2019-01-26T09:52:48.695Z,3.30
2019-01-26T09:55:23.073Z,3.30
2019-01-26T09:57:51.559Z,3.30
2019-01-26T10:00:27.319Z,3.40
2019-01-26T10:02:55.740Z,3.40
2019-01-26T10:05:24.426Z,3.40
2019-01-26T10:07:53.061Z,3.40
2019-01-26T10:10:21.803Z,3.40
2019-01-26T10:12:50.290Z,3.40
2019-01-26T10:15:21.820Z,3.40
2019-01-26T10:17:50.291Z,3.40
2019-01-26T10:20:27.439Z,3.40
2019-01-26T10:22:55.878Z,3.40
2019-01-26T10:25:24.356Z,3.40
2019-01-26T10:27:52.764Z,3.30
2019-01-26T10:30:25.738Z,3.30
2019-01-26T10:32:54.169Z,3.40
2019-01-26T10:35:24.231Z,3.50
2019-01-26T10:37:52.807Z,3.50
2019-01-26T10:40:34.751Z,3.60
2019-01-26T10:43:04.010Z,3.70
2019-01-26T10:45:32.423Z,3.90
2019-01-26T10:48:01.090Z,4.00
2019-01-26T10:50:29.758Z,4.20
2019-01-26T10:52:58.162Z,4.30
2019-01-26T10:55:26.889Z,4.30
2019-01-26T10:57:55.290Z,4.30
2019-01-26T11:00:23.952Z,4.40
2019-01-26T11:02:52.457Z,4.40
2019-01-26T11:05:21.186Z,4.40
2019-01-26T11:07:49.595Z,4.40
2019-01-26T11:10:18.083Z,4.50
2019-01-26T11:12:46.498Z,4.50
2019-01-26T11:15:15.052Z,4.50
2019-01-26T11:17:43.713Z,4.60
2019-01-26T11:20:16.082Z,4.60
2019-01-26T11:22:44.503Z,4.60
2019-01-26T11:25:14.024Z,4.70
2019-01-26T11:27:42.466Z,4.80
2019-01-26T11:30:16.564Z,4.80
2019-01-26T11:32:44.974Z,4.90
2019-01-26T11:35:16.191Z,4.90
2019-01-26T11:37:44.787Z,5.00
2019-01-26T11:40:14.945Z,5.00
2019-01-26T11:42:43.405Z,5.00
2019-01-26T11:45:15.488Z,5.10
2019-01-26T11:47:43.900Z,5.20
2019-01-26T11:50:14.067Z,5.20
2019-01-26T11:52:42.500Z,5.20
2019-01-26T11:55:12.694Z,5.20
2019-01-26T11:57:41.175Z,5.10
2019-01-26T12:00:14.294Z,5.10
2019-01-26T12:02:44.368Z,5.20
2019-01-26T12:05:14.416Z,5.20
2019-01-26T12:07:42.831Z,5.20
2019-01-26T12:10:11.584Z,5.10
2019-01-26T12:12:40.004Z,5.20
2019-01-26T12:15:11.651Z,5.30
2019-01-26T12:17:40.104Z,5.30
2019-01-26T12:20:14.026Z,5.20
2019-01-26T12:22:42.443Z,5.30
2019-01-26T12:25:11.300Z,5.30
2019-01-26T12:27:39.707Z,5.30
2019-01-26T12:30:13.837Z,5.30
2019-01-26T12:32:42.320Z,5.30
2019-01-26T12:35:15.125Z,5.20
2019-01-26T12:37:43.807Z,5.20
2019-01-26T12:40:14.163Z,5.20
2019-01-26T12:42:42.644Z,5.20
2019-01-26T12:45:18.016Z,5.30
2019-01-26T12:47:46.527Z,5.30
2019-01-26T12:50:15.947Z,5.40
2019-01-26T12:52:44.343Z,5.40
2019-01-26T12:55:17.774Z,5.50
2019-01-26T12:57:46.274Z,5.50
2019-01-26T13:00:17.720Z,5.50
2019-01-26T13:02:46.225Z,5.60
2019-01-26T13:05:14.700Z,5.60
2019-01-26T13:07:43.174Z,5.60
2019-01-26T13:10:20.913Z,5.70
2019-01-26T13:12:49.338Z,5.60
2019-01-26T13:15:17.752Z,5.60
2019-01-26T13:17:46.164Z,5.60
2019-01-26T13:20:15.903Z,5.70
2019-01-26T13:22:44.415Z,5.60
2019-01-26T13:25:18.206Z,5.60
2019-01-26T13:27:46.791Z,5.60
2019-01-26T13:30:23.588Z,5.60
2019-01-26T13:32:52.344Z,5.70
2019-01-26T13:35:20.871Z,5.70
2019-01-26T13:37:49.360Z,5.70
2019-01-26T13:40:23.604Z,5.70
2019-01-26T13:42:52.013Z,5.70
2019-01-26T13:45:20.671Z,5.70
2019-01-26T13:47:49.159Z,5.60
2019-01-26T13:50:17.903Z,5.50
2019-01-26T13:52:46.562Z,5.30
2019-01-26T13:55:20.230Z,5.30
2019-01-26T13:57:50.051Z,5.30
2019-01-26T14:00:37.433Z,5.20
2019-01-26T14:03:05.986Z,5.10
2019-01-26T14:05:34.516Z,5.00
2019-01-26T14:08:02.915Z,5.00
2019-01-26T14:10:31.336Z,4.90
2019-01-26T14:12:59.730Z,5.00
2019-01-26T14:15:28.162Z,5.00
2019-01-26T14:17:56.880Z,5.00
2019-01-26T14:20:27.019Z,5.00
2019-01-26T14:22:55.468Z,5.00
2019-01-26T14:25:24.607Z,4.90
2019-01-26T14:27:53.078Z,4.90
2019-01-26T14:30:30.521Z,4.90
2019-01-26T14:32:59.161Z,4.90
2019-01-26T14:35:27.816Z,4.90
2019-01-26T14:37:56.314Z,4.80
2019-01-26T14:40:24.714Z,4.90
2019-01-26T14:42:54.485Z,4.80
2019-01-26T14:45:23.220Z,4.70
2019-01-26T14:47:51.904Z,4.70
2019-01-26T14:50:20.451Z,4.70
2019-01-26T14:52:48.864Z,4.60
2019-01-26T14:55:22.862Z,4.60
2019-01-26T14:57:51.326Z,4.60
2019-01-26T15:00:28.397Z,4.50
2019-01-26T15:02:56.785Z,4.60
2019-01-26T15:05:25.533Z,4.50
2019-01-26T15:07:54.126Z,4.50
2019-01-26T15:10:22.641Z,4.50
2019-01-26T15:12:51.052Z,4.50
2019-01-26T15:15:21.188Z,4.40
2019-01-26T15:17:49.605Z,4.40
2019-01-26T15:20:23.587Z,4.40
2019-01-26T15:22:52.238Z,4.40
2019-01-26T15:25:20.759Z,4.40
2019-01-26T15:27:49.418Z,4.40
2019-01-26T15:30:20.653Z,4.40
2019-01-26T15:32:49.071Z,4.40
2019-01-26T15:35:17.473Z,4.30
2019-01-26T15:37:45.980Z,4.30
2019-01-26T15:40:14.547Z,4.30
2019-01-26T15:42:43.197Z,4.30
2019-01-26T15:45:14.715Z,4.30
2019-01-26T15:47:43.497Z,4.30
2019-01-26T15:50:13.850Z,4.30
2019-01-26T15:52:42.315Z,4.20
2019-01-26T15:55:22.206Z,4.10
2019-01-26T15:57:50.851Z,4.20
2019-01-26T16:00:22.376Z,4.20
2019-01-26T16:02:50.812Z,4.10
2019-01-26T16:05:19.210Z,4.10
2019-01-26T16:07:47.714Z,4.10
2019-01-26T16:10:18.828Z,4.10
2019-01-26T16:12:47.415Z,4.00
2019-01-26T16:15:21.271Z,4.00
2019-01-26T16:17:49.835Z,3.90
2019-01-26T16:20:20.589Z,3.90
2019-01-26T16:22:49.352Z,3.90
2019-01-26T16:25:18.004Z,3.90
2019-01-26T16:27:46.743Z,3.80
2019-01-26T16:30:18.335Z,3.80
2019-01-26T16:32:47.197Z,3.80
2019-01-26T16:35:16.943Z,3.80
2019-01-26T16:37:45.344Z,3.80
2019-01-26T16:40:19.619Z,3.80
2019-01-26T16:42:48.041Z,3.90
2019-01-26T16:45:28.426Z,3.90
2019-01-26T16:47:56.837Z,3.80
2019-01-26T16:50:28.030Z,3.80
2019-01-26T16:52:56.727Z,3.70
2019-01-26T16:55:25.200Z,3.80
2019-01-26T16:57:53.710Z,3.80
2019-01-26T17:00:25.464Z,3.70
2019-01-26T17:02:53.855Z,3.70
2019-01-26T17:05:25.901Z,3.70
2019-01-26T17:07:52.548Z,3.60
2019-01-26T17:10:21.847Z,3.60
2019-01-26T17:12:50.257Z,3.70
2019-01-26T17:15:18.985Z,3.70
2019-01-26T17:17:47.475Z,3.70
2019-01-26T17:20:21.993Z,3.70
2019-01-26T17:22:50.768Z,3.70
2019-01-26T17:25:19.301Z,3.70
2019-01-26T17:27:48.052Z,3.80
2019-01-26T17:30:25.510Z,3.80
2019-01-26T17:32:53.936Z,3.80
2019-01-26T17:35:22.674Z,3.90
2019-01-26T17:37:51.067Z,3.80
2019-01-26T17:40:23.903Z,3.80
2019-01-26T17:42:52.371Z,3.80
2019-01-26T17:45:21.233Z,3.80
2019-01-26T17:47:50.288Z,3.90
2019-01-26T17:50:23.347Z,3.80
2019-01-26T17:52:51.785Z,3.80
2019-01-26T17:55:20.872Z,3.80
2019-01-26T17:57:49.618Z,3.70
2019-01-26T18:00:25.680Z,3.80
2019-01-26T18:02:54.603Z,3.80
2019-01-26T18:05:23.084Z,3.80
2019-01-26T18:07:51.490Z,3.90
2019-01-26T18:10:22.788Z,3.90
2019-01-26T18:12:51.239Z,3.90
2019-01-26T18:15:19.924Z,3.80
2019-01-26T18:17:48.406Z,3.90
2019-01-26T18:20:22.724Z,3.90
2019-01-26T18:22:51.119Z,3.90
2019-01-26T18:25:19.772Z,3.90
2019-01-26T18:27:48.195Z,4.00
2019-01-26T18:30:27.405Z,4.00
2019-01-26T18:32:55.900Z,4.00
2019-01-26T18:35:24.613Z,4.00
2019-01-26T18:37:53.045Z,4.00
2019-01-26T18:40:26.207Z,3.90
2019-01-26T18:42:54.847Z,3.90
2019-01-26T18:45:25.579Z,3.90
2019-01-26T18:47:54.119Z,3.90
2019-01-26T18:50:25.115Z,3.90
2019-01-26T18:52:53.847Z,3.90
2019-01-26T18:55:22.426Z,3.90
2019-01-26T18:57:51.100Z,3.90
2019-01-26T19:00:22.017Z,3.80
2019-01-26T19:02:59.623Z,3.80
2019-01-26T19:05:29.794Z,3.70
2019-01-26T19:07:58.437Z,3.70
2019-01-26T19:10:26.942Z,3.70
2019-01-26T19:12:55.343Z,3.70
2019-01-26T19:15:24.831Z,3.70
2019-01-26T19:17:54.030Z,3.70
2019-01-26T19:20:22.809Z,3.60
2019-01-26T19:22:51.242Z,3.60
2019-01-26T19:25:20.187Z,3.50
2019-01-26T19:27:48.667Z,3.50
2019-01-26T19:30:22.091Z,3.60
2019-01-26T19:32:50.569Z,3.60
2019-01-26T19:35:19.006Z,3.70
2019-01-26T19:37:47.724Z,3.70
2019-01-26T19:40:21.444Z,3.80
2019-01-26T19:42:49.857Z,3.80
2019-01-26T19:45:20.126Z,3.80
2019-01-26T19:47:48.855Z,3.90
2019-01-26T19:50:20.511Z,3.80
2019-01-26T19:52:48.922Z,3.80
2019-01-26T19:55:19.315Z,4.00
2019-01-26T19:57:48.177Z,4.00
2019-01-26T20:00:16.724Z,4.10
2019-01-26T20:02:45.624Z,4.10
2019-01-26T20:05:22.187Z,4.20
2019-01-26T20:07:52.740Z,4.10
2019-01-26T20:10:21.927Z,4.10
2019-01-26T20:12:50.370Z,4.10
2019-01-26T20:15:25.747Z,4.00
2019-01-26T20:17:54.308Z,4.00
2019-01-26T20:20:28.221Z,4.00
2019-01-26T20:22:56.620Z,4.00
2019-01-26T20:25:25.260Z,4.10
2019-01-26T20:27:53.971Z,4.10
2019-01-26T20:30:30.463Z,4.10
2019-01-26T20:32:59.324Z,4.20
2019-01-26T20:35:28.451Z,4.20
2019-01-26T20:37:57.164Z,4.20
2019-01-26T20:40:25.713Z,4.20
2019-01-26T20:42:54.500Z,4.20
2019-01-26T20:45:25.412Z,4.20
2019-01-26T20:47:54.234Z,4.20
2019-01-26T20:50:22.702Z,4.20
2019-01-26T20:52:51.375Z,4.10
2019-01-26T20:55:19.763Z,4.20
2019-01-26T20:57:48.241Z,4.20
2019-01-26T21:00:27.777Z,4.30
2019-01-26T21:02:56.488Z,4.30
2019-01-26T21:05:25.277Z,4.30
2019-01-26T21:07:53.796Z,4.30
2019-01-26T21:10:24.520Z,4.20
2019-01-26T21:12:52.936Z,4.20
2019-01-26T21:15:21.512Z,4.20
2019-01-26T21:17:49.923Z,4.10
2019-01-26T21:20:21.588Z,4.10
2019-01-26T21:22:50.064Z,4.20
2019-01-26T21:25:18.524Z,4.20
2019-01-26T21:27:47.072Z,4.20
2019-01-26T21:30:21.079Z,4.20
2019-01-26T21:32:49.497Z,4.10
2019-01-26T21:35:18.067Z,4.10
2019-01-26T21:37:46.487Z,4.10
2019-01-26T21:40:23.060Z,4.00
2019-01-26T21:42:51.479Z,4.00
2019-01-26T21:45:20.707Z,4.00
2019-01-26T21:47:49.122Z,4.00
2019-01-26T21:50:22.954Z,4.00
2019-01-26T21:52:51.430Z,4.00
2019-01-26T21:55:19.903Z,4.00
2019-01-26T21:57:48.322Z,4.00
2019-01-26T22:00:30.950Z,4.10
2019-01-26T22:02:59.720Z,4.10
2019-01-26T22:05:28.129Z,4.20
2019-01-26T22:07:56.541Z,4.30
2019-01-26T22:10:27.255Z,4.30
2019-01-26T22:12:55.667Z,4.30
2019-01-26T22:15:24.804Z,4.40
2019-01-26T22:17:53.284Z,4.40
2019-01-26T22:20:27.254Z,4.40
2019-01-26T22:22:57.655Z,4.40
2019-01-26T22:25:26.060Z,4.40
2019-01-26T22:27:55.349Z,4.40
2019-01-26T22:30:26.829Z,4.40
2019-01-26T22:32:55.615Z,4.40
2019-01-26T22:35:24.485Z,4.40
2019-01-26T22:37:53.042Z,4.40
2019-01-26T22:40:23.697Z,4.50
2019-01-26T22:42:52.119Z,4.50
2019-01-26T22:45:20.538Z,4.50
2019-01-26T22:47:48.991Z,4.50
2019-01-26T22:50:20.481Z,4.50
2019-01-26T22:52:49.047Z,4.50
2019-01-26T22:55:19.617Z,4.50
2019-01-26T22:57:49.007Z,4.50
2019-01-26T23:00:42.987Z,4.50
2019-01-26T23:03:13.221Z,4.60
2019-01-26T23:06:11.856Z,4.60
2019-01-26T23:08:40.546Z,4.70
2019-01-26T23:11:21.128Z,4.70
2019-01-26T23:13:52.638Z,4.70
2019-01-26T23:16:27.231Z,4.70
2019-01-26T23:19:05.685Z,4.70
2019-01-26T23:22:02.901Z,4.70
2019-01-26T23:24:55.462Z,4.70
2019-01-26T23:27:29.461Z,4.70
2019-01-26T23:30:09.380Z,4.80
2019-01-26T23:32:37.844Z,4.70
2019-01-26T23:35:08.329Z,4.70
2019-01-26T23:37:36.732Z,4.70
2019-01-26T23:40:08.713Z,4.70
2019-01-26T23:42:37.357Z,4.80
2019-01-26T23:45:08.800Z,4.80
2019-01-26T23:47:37.337Z,4.80
2019-01-26T23:50:08.459Z,4.80
2019-01-26T23:52:36.882Z,4.70
2019-01-26T23:55:07.921Z,4.70
2019-01-26T23:57:36.311Z,4.70
